sensor_id;sensor_type;location;lat;lon;timestamp;temperature;humidity
6538;DHT22;3302;52.508;13.454;2023-07-13T00:00:26;20.60;73.50
6538;DHT22;3302;52.508;13.454;2023-07-13T00:02:52;20.50;74.30
6538;DHT22;3302;52.508;13.454;2023-07-13T00:05:21;20.40;75.30
6538;DHT22;3302;52.508;13.454;2023-07-13T00:07:48;20.40;75.80
6538;DHT22;3302;52.508;13.454;2023-07-13T00:10:14;20.30;76.40
6538;DHT22;3302;52.508;13.454;2023-07-13T00:12:40;20.40;76.40
6538;DHT22;3302;52.508;13.454;2023-07-13T00:15:11;20.30;77.10
6538;DHT22;3302;52.508;13.454;2023-07-13T00:17:37;20.30;77.50
6538;DHT22;3302;52.508;13.454;2023-07-13T00:20:05;20.10;78.00
6538;DHT22;3302;52.508;13.454;2023-07-13T00:22:32;20.20;78.10
6538;DHT22;3302;52.508;13.454;2023-07-13T00:24:58;20.30;77.60
6538;DHT22;3302;52.508;13.454;2023-07-13T00:27:24;20.50;77.10
6538;DHT22;3302;52.508;13.454;2023-07-13T00:29:52;20.60;76.00
6538;DHT22;3302;52.508;13.454;2023-07-13T00:32:18;20.60;76.20
6538;DHT22;3302;52.508;13.454;2023-07-13T00:34:44;20.60;76.20
6538;DHT22;3302;52.508;13.454;2023-07-13T00:37:10;20.30;76.30
6538;DHT22;3302;52.508;13.454;2023-07-13T00:39:37;20.30;76.50
6538;DHT22;3302;52.508;13.454;2023-07-13T00:42:03;20.10;77.40
6538;DHT22;3302;52.508;13.454;2023-07-13T00:44:29;20.10;77.30
6538;DHT22;3302;52.508;13.454;2023-07-13T00:46:56;20.40;76.80
6538;DHT22;3302;52.508;13.454;2023-07-13T00:49:26;20.30;76.00
6538;DHT22;3302;52.508;13.454;2023-07-13T00:54:37;20.10;76.20
6538;DHT22;3302;52.508;13.454;2023-07-13T00:57:07;20.10;76.20
6538;DHT22;3302;52.508;13.454;2023-07-13T00:59:35;20.20;75.70
6538;DHT22;3302;52.508;13.454;2023-07-13T01:02:02;20.10;76.30
6538;DHT22;3302;52.508;13.454;2023-07-13T01:04:29;20.10;75.90
6538;DHT22;3302;52.508;13.454;2023-07-13T01:06:56;20.20;75.90
6538;DHT22;3302;52.508;13.454;2023-07-13T01:09:22;20.10;76.40
6538;DHT22;3302;52.508;13.454;2023-07-13T01:11:48;20.30;75.70
6538;DHT22;3302;52.508;13.454;2023-07-13T01:14:15;20.30;75.70
6538;DHT22;3302;52.508;13.454;2023-07-13T01:16:44;20.10;76.30
6538;DHT22;3302;52.508;13.454;2023-07-13T01:21:50;20.00;76.20
6538;DHT22;3302;52.508;13.454;2023-07-13T01:24:16;20.00;76.30
6538;DHT22;3302;52.508;13.454;2023-07-13T01:26:42;19.90;77.10
6538;DHT22;3302;52.508;13.454;2023-07-13T01:29:08;19.90;77.10
6538;DHT22;3302;52.508;13.454;2023-07-13T01:31:34;20.00;76.30
6538;DHT22;3302;52.508;13.454;2023-07-13T01:34:00;20.00;76.70
6538;DHT22;3302;52.508;13.454;2023-07-13T01:36:26;20.10;75.90
6538;DHT22;3302;52.508;13.454;2023-07-13T01:38:52;20.10;76.20
6538;DHT22;3302;52.508;13.454;2023-07-13T01:41:18;19.90;76.10
6538;DHT22;3302;52.508;13.454;2023-07-13T01:43:43;20.00;75.80
6538;DHT22;3302;52.508;13.454;2023-07-13T01:46:09;20.20;75.40
6538;DHT22;3302;52.508;13.454;2023-07-13T01:48:35;20.20;75.10
6538;DHT22;3302;52.508;13.454;2023-07-13T01:51:01;20.00;75.90
6538;DHT22;3302;52.508;13.454;2023-07-13T01:53:27;20.10;75.70
6538;DHT22;3302;52.508;13.454;2023-07-13T01:55:53;20.00;76.20
6538;DHT22;3302;52.508;13.454;2023-07-13T01:58:18;20.10;77.00
6538;DHT22;3302;52.508;13.454;2023-07-13T02:00:44;20.00;77.20
6538;DHT22;3302;52.508;13.454;2023-07-13T02:03:13;19.80;77.80
6538;DHT22;3302;52.508;13.454;2023-07-13T02:05:44;19.90;77.90
6538;DHT22;3302;52.508;13.454;2023-07-13T02:08:10;19.80;78.70
6538;DHT22;3302;52.508;13.454;2023-07-13T02:10:37;19.70;79.00
6538;DHT22;3302;52.508;13.454;2023-07-13T02:13:05;19.60;79.90
6538;DHT22;3302;52.508;13.454;2023-07-13T02:15:31;19.60;80.50
6538;DHT22;3302;52.508;13.454;2023-07-13T02:17:57;19.60;80.50
6538;DHT22;3302;52.508;13.454;2023-07-13T02:20:24;19.60;80.10
6538;DHT22;3302;52.508;13.454;2023-07-13T02:22:52;19.80;79.70
6538;DHT22;3302;52.508;13.454;2023-07-13T02:25:17;19.80;79.20
6538;DHT22;3302;52.508;13.454;2023-07-13T02:27:43;19.80;79.30
6538;DHT22;3302;52.508;13.454;2023-07-13T02:30:10;20.00;78.80
6538;DHT22;3302;52.508;13.454;2023-07-13T02:32:36;19.90;78.60
6538;DHT22;3302;52.508;13.454;2023-07-13T02:35:02;19.80;79.30
6538;DHT22;3302;52.508;13.454;2023-07-13T02:37:29;19.90;79.00
6538;DHT22;3302;52.508;13.454;2023-07-13T02:39:55;20.00;79.10
6538;DHT22;3302;52.508;13.454;2023-07-13T02:42:21;19.90;79.40
6538;DHT22;3302;52.508;13.454;2023-07-13T02:44:47;19.90;79.90
6538;DHT22;3302;52.508;13.454;2023-07-13T02:47:13;19.90;79.70
6538;DHT22;3302;52.508;13.454;2023-07-13T02:49:39;19.90;79.70
6538;DHT22;3302;52.508;13.454;2023-07-13T02:52:05;19.70;80.70
6538;DHT22;3302;52.508;13.454;2023-07-13T02:54:31;19.60;81.30
6538;DHT22;3302;52.508;13.454;2023-07-13T02:56:57;19.70;81.60
6538;DHT22;3302;52.508;13.454;2023-07-13T02:59:23;19.60;82.00
6538;DHT22;3302;52.508;13.454;2023-07-13T03:01:49;19.50;83.10
6538;DHT22;3302;52.508;13.454;2023-07-13T03:04:14;19.50;83.20
6538;DHT22;3302;52.508;13.454;2023-07-13T03:06:45;19.40;83.80
6538;DHT22;3302;52.508;13.454;2023-07-13T03:09:12;19.30;85.00
6538;DHT22;3302;52.508;13.454;2023-07-13T03:11:38;19.40;84.90
6538;DHT22;3302;52.508;13.454;2023-07-13T03:14:04;19.40;84.70
6538;DHT22;3302;52.508;13.454;2023-07-13T03:16:30;19.50;84.30
6538;DHT22;3302;52.508;13.454;2023-07-13T03:18:56;19.60;84.10
6538;DHT22;3302;52.508;13.454;2023-07-13T03:21:22;19.60;84.00
6538;DHT22;3302;52.508;13.454;2023-07-13T03:23:48;19.50;84.20
6538;DHT22;3302;52.508;13.454;2023-07-13T03:26:16;19.30;85.00
6538;DHT22;3302;52.508;13.454;2023-07-13T03:28:44;19.40;85.20
6538;DHT22;3302;52.508;13.454;2023-07-13T03:31:13;19.40;85.00
6538;DHT22;3302;52.508;13.454;2023-07-13T03:33:39;19.40;85.00
6538;DHT22;3302;52.508;13.454;2023-07-13T03:36:06;19.30;85.80
6538;DHT22;3302;52.508;13.454;2023-07-13T03:38:34;19.50;85.10
6538;DHT22;3302;52.508;13.454;2023-07-13T03:41:00;19.30;85.80
6538;DHT22;3302;52.508;13.454;2023-07-13T03:43:26;19.40;85.70
6538;DHT22;3302;52.508;13.454;2023-07-13T03:45:52;19.40;85.70
6538;DHT22;3302;52.508;13.454;2023-07-13T03:48:18;19.40;86.20
6538;DHT22;3302;52.508;13.454;2023-07-13T03:50:44;19.40;85.90
6538;DHT22;3302;52.508;13.454;2023-07-13T03:53:10;19.50;85.70
6538;DHT22;3302;52.508;13.454;2023-07-13T03:55:35;19.40;86.10
6538;DHT22;3302;52.508;13.454;2023-07-13T03:58:38;19.40;86.00
6538;DHT22;3302;52.508;13.454;2023-07-13T04:01:06;19.40;86.00
6538;DHT22;3302;52.508;13.454;2023-07-13T04:03:33;19.40;86.30
6538;DHT22;3302;52.508;13.454;2023-07-13T04:06:03;19.40;86.20
6538;DHT22;3302;52.508;13.454;2023-07-13T04:08:32;19.50;86.20
6538;DHT22;3302;52.508;13.454;2023-07-13T04:10:59;19.30;87.20
6538;DHT22;3302;52.508;13.454;2023-07-13T04:13:25;19.30;86.90
6538;DHT22;3302;52.508;13.454;2023-07-13T04:15:52;19.30;86.90
6538;DHT22;3302;52.508;13.454;2023-07-13T04:18:19;19.20;85.80
6538;DHT22;3302;52.508;13.454;2023-07-13T04:20:49;19.20;86.60
6538;DHT22;3302;52.508;13.454;2023-07-13T04:23:16;19.30;86.30
6538;DHT22;3302;52.508;13.454;2023-07-13T04:25:51;19.10;86.60
6538;DHT22;3302;52.508;13.454;2023-07-13T04:28:20;19.20;86.70
6538;DHT22;3302;52.508;13.454;2023-07-13T04:30:46;19.10;87.40
6538;DHT22;3302;52.508;13.454;2023-07-13T04:33:12;19.20;87.20
6538;DHT22;3302;52.508;13.454;2023-07-13T04:35:38;19.20;87.40
6538;DHT22;3302;52.508;13.454;2023-07-13T04:38:04;19.20;87.30
6538;DHT22;3302;52.508;13.454;2023-07-13T04:40:32;19.30;87.00
6538;DHT22;3302;52.508;13.454;2023-07-13T04:42:58;19.30;86.60
6538;DHT22;3302;52.508;13.454;2023-07-13T04:45:24;19.30;87.20
6538;DHT22;3302;52.508;13.454;2023-07-13T04:47:50;19.30;87.30
6538;DHT22;3302;52.508;13.454;2023-07-13T04:50:16;19.20;87.70
6538;DHT22;3302;52.508;13.454;2023-07-13T04:52:46;19.30;87.40
6538;DHT22;3302;52.508;13.454;2023-07-13T04:55:12;19.40;86.90
6538;DHT22;3302;52.508;13.454;2023-07-13T04:57:38;19.40;86.30
6538;DHT22;3302;52.508;13.454;2023-07-13T05:00:04;19.50;86.30
6538;DHT22;3302;52.508;13.454;2023-07-13T05:02:30;19.40;86.40
6538;DHT22;3302;52.508;13.454;2023-07-13T05:04:58;19.60;85.80
6538;DHT22;3302;52.508;13.454;2023-07-13T05:07:25;19.70;85.20
6538;DHT22;3302;52.508;13.454;2023-07-13T05:09:51;19.60;85.60
6538;DHT22;3302;52.508;13.454;2023-07-13T05:12:17;19.60;85.10
6538;DHT22;3302;52.508;13.454;2023-07-13T05:14:43;19.70;84.90
6538;DHT22;3302;52.508;13.454;2023-07-13T05:17:09;19.70;84.40
6538;DHT22;3302;52.508;13.454;2023-07-13T05:19:35;19.70;84.70
6538;DHT22;3302;52.508;13.454;2023-07-13T05:22:01;19.70;84.70
6538;DHT22;3302;52.508;13.454;2023-07-13T05:24:28;19.80;84.90
6538;DHT22;3302;52.508;13.454;2023-07-13T05:26:55;19.80;85.10
6538;DHT22;3302;52.508;13.454;2023-07-13T05:29:21;19.90;84.70
6538;DHT22;3302;52.508;13.454;2023-07-13T05:31:48;20.00;84.00
6538;DHT22;3302;52.508;13.454;2023-07-13T05:34:14;20.10;83.90
6538;DHT22;3302;52.508;13.454;2023-07-13T05:36:40;20.00;83.90
6538;DHT22;3302;52.508;13.454;2023-07-13T05:39:06;20.10;84.30
6538;DHT22;3302;52.508;13.454;2023-07-13T05:41:32;20.10;83.40
6538;DHT22;3302;52.508;13.454;2023-07-13T05:43:58;20.00;83.80
6538;DHT22;3302;52.508;13.454;2023-07-13T05:46:24;20.20;83.90
6538;DHT22;3302;52.508;13.454;2023-07-13T05:48:50;20.10;83.70
6538;DHT22;3302;52.508;13.454;2023-07-13T05:51:15;20.10;84.00
6538;DHT22;3302;52.508;13.454;2023-07-13T05:53:41;20.20;84.00
6538;DHT22;3302;52.508;13.454;2023-07-13T05:56:07;20.20;83.80
6538;DHT22;3302;52.508;13.454;2023-07-13T05:58:33;20.40;83.20
6538;DHT22;3302;52.508;13.454;2023-07-13T06:01:06;20.30;83.60
6538;DHT22;3302;52.508;13.454;2023-07-13T06:03:32;20.20;84.10
6538;DHT22;3302;52.508;13.454;2023-07-13T06:05:58;20.20;84.50
6538;DHT22;3302;52.508;13.454;2023-07-13T06:08:28;20.40;83.50
6538;DHT22;3302;52.508;13.454;2023-07-13T06:10:53;20.50;83.50
6538;DHT22;3302;52.508;13.454;2023-07-13T06:13:19;20.50;83.20
6538;DHT22;3302;52.508;13.454;2023-07-13T06:15:49;20.50;82.90
6538;DHT22;3302;52.508;13.454;2023-07-13T06:18:15;20.60;83.20
6538;DHT22;3302;52.508;13.454;2023-07-13T06:20:41;20.70;82.90
6538;DHT22;3302;52.508;13.454;2023-07-13T06:23:07;20.80;82.80
6538;DHT22;3302;52.508;13.454;2023-07-13T06:25:33;21.00;82.20
6538;DHT22;3302;52.508;13.454;2023-07-13T06:27:59;20.90;81.90
6538;DHT22;3302;52.508;13.454;2023-07-13T06:30:25;20.90;81.50
6538;DHT22;3302;52.508;13.454;2023-07-13T06:32:51;21.00;81.70
6538;DHT22;3302;52.508;13.454;2023-07-13T06:35:16;20.90;81.30
6538;DHT22;3302;52.508;13.454;2023-07-13T06:37:42;21.00;81.80
6538;DHT22;3302;52.508;13.454;2023-07-13T06:40:08;21.20;81.10
6538;DHT22;3302;52.508;13.454;2023-07-13T06:42:34;21.10;81.00
6538;DHT22;3302;52.508;13.454;2023-07-13T06:45:00;21.30;80.20
6538;DHT22;3302;52.508;13.454;2023-07-13T06:47:26;21.20;80.20
6538;DHT22;3302;52.508;13.454;2023-07-13T06:49:52;21.50;79.10
6538;DHT22;3302;52.508;13.454;2023-07-13T06:52:18;21.50;79.00
6538;DHT22;3302;52.508;13.454;2023-07-13T06:54:44;21.50;77.70
6538;DHT22;3302;52.508;13.454;2023-07-13T06:57:10;21.50;77.80
6538;DHT22;3302;52.508;13.454;2023-07-13T06:59:35;21.70;77.60
6538;DHT22;3302;52.508;13.454;2023-07-13T07:02:01;21.70;76.30
6538;DHT22;3302;52.508;13.454;2023-07-13T07:04:27;21.50;75.90
6538;DHT22;3302;52.508;13.454;2023-07-13T07:06:53;21.50;74.60
6538;DHT22;3302;52.508;13.454;2023-07-13T07:09:19;21.60;74.70
6538;DHT22;3302;52.508;13.454;2023-07-13T07:11:45;21.70;75.00
6538;DHT22;3302;52.508;13.454;2023-07-13T07:14:11;21.60;73.20
6538;DHT22;3302;52.508;13.454;2023-07-13T07:16:37;21.80;72.60
6538;DHT22;3302;52.508;13.454;2023-07-13T07:19:02;21.80;71.50
6538;DHT22;3302;52.508;13.454;2023-07-13T07:21:28;21.90;71.60
6538;DHT22;3302;52.508;13.454;2023-07-13T07:23:54;21.80;71.10
6538;DHT22;3302;52.508;13.454;2023-07-13T07:26:20;21.90;71.10
6538;DHT22;3302;52.508;13.454;2023-07-13T07:28:46;21.80;71.20
6538;DHT22;3302;52.508;13.454;2023-07-13T07:31:12;21.90;69.40
6538;DHT22;3302;52.508;13.454;2023-07-13T07:33:37;22.20;70.20
6538;DHT22;3302;52.508;13.454;2023-07-13T07:36:04;22.50;69.00
6538;DHT22;3302;52.508;13.454;2023-07-13T07:38:29;22.50;68.20
6538;DHT22;3302;52.508;13.454;2023-07-13T07:40:55;22.40;68.30
6538;DHT22;3302;52.508;13.454;2023-07-13T07:43:21;22.40;66.40
6538;DHT22;3302;52.508;13.454;2023-07-13T07:45:47;22.50;66.70
6538;DHT22;3302;52.508;13.454;2023-07-13T07:48:13;22.50;65.10
6538;DHT22;3302;52.508;13.454;2023-07-13T07:50:39;22.40;66.20
6538;DHT22;3302;52.508;13.454;2023-07-13T07:53:06;22.30;66.90
6538;DHT22;3302;52.508;13.454;2023-07-13T07:55:34;22.50;66.10
6538;DHT22;3302;52.508;13.454;2023-07-13T07:58:02;22.70;66.50
6538;DHT22;3302;52.508;13.454;2023-07-13T08:00:29;22.70;67.60
6538;DHT22;3302;52.508;13.454;2023-07-13T08:02:58;22.70;66.70
6538;DHT22;3302;52.508;13.454;2023-07-13T08:05:24;22.50;67.70
6538;DHT22;3302;52.508;13.454;2023-07-13T08:07:50;22.40;67.00
6538;DHT22;3302;52.508;13.454;2023-07-13T08:10:16;22.50;66.20
6538;DHT22;3302;52.508;13.454;2023-07-13T08:12:42;22.60;65.80
6538;DHT22;3302;52.508;13.454;2023-07-13T08:15:14;22.60;66.80
6538;DHT22;3302;52.508;13.454;2023-07-13T08:17:43;22.70;67.00
6538;DHT22;3302;52.508;13.454;2023-07-13T08:20:09;22.60;66.00
6538;DHT22;3302;52.508;13.454;2023-07-13T08:22:36;22.60;65.10
6538;DHT22;3302;52.508;13.454;2023-07-13T08:25:02;22.80;64.00
6538;DHT22;3302;52.508;13.454;2023-07-13T08:27:29;22.80;63.30
6538;DHT22;3302;52.508;13.454;2023-07-13T08:29:55;22.70;63.10
6538;DHT22;3302;52.508;13.454;2023-07-13T08:32:22;22.70;62.40
6538;DHT22;3302;52.508;13.454;2023-07-13T08:34:49;22.70;62.40
6538;DHT22;3302;52.508;13.454;2023-07-13T08:37:15;22.80;63.10
6538;DHT22;3302;52.508;13.454;2023-07-13T08:39:42;22.70;61.30
6538;DHT22;3302;52.508;13.454;2023-07-13T08:45:13;22.50;62.90
6538;DHT22;3302;52.508;13.454;2023-07-13T08:47:46;22.70;62.60
6538;DHT22;3302;52.508;13.454;2023-07-13T08:50:17;22.70;62.90
6538;DHT22;3302;52.508;13.454;2023-07-13T08:52:44;22.50;63.70
6538;DHT22;3302;52.508;13.454;2023-07-13T08:55:15;22.60;64.20
6538;DHT22;3302;52.508;13.454;2023-07-13T08:57:43;22.50;65.00
6538;DHT22;3302;52.508;13.454;2023-07-13T09:00:11;22.50;64.10
6538;DHT22;3302;52.508;13.454;2023-07-13T09:02:42;22.40;64.30
6538;DHT22;3302;52.508;13.454;2023-07-13T09:05:15;22.50;64.50
6538;DHT22;3302;52.508;13.454;2023-07-13T09:10:36;22.90;63.30
6538;DHT22;3302;52.508;13.454;2023-07-13T09:13:37;22.90;62.30
6538;DHT22;3302;52.508;13.454;2023-07-13T09:16:01;22.80;62.50
6538;DHT22;3302;52.508;13.454;2023-07-13T09:18:36;22.90;62.20
6538;DHT22;3302;52.508;13.454;2023-07-13T09:21:16;22.90;60.00
6538;DHT22;3302;52.508;13.454;2023-07-13T09:23:43;23.00;58.40
6538;DHT22;3302;52.508;13.454;2023-07-13T09:26:23;23.30;58.40
6538;DHT22;3302;52.508;13.454;2023-07-13T09:28:53;23.30;56.70
6538;DHT22;3302;52.508;13.454;2023-07-13T09:31:34;23.30;56.00
6538;DHT22;3302;52.508;13.454;2023-07-13T09:34:02;23.40;56.30
6538;DHT22;3302;52.508;13.454;2023-07-13T09:36:31;23.60;56.30
6538;DHT22;3302;52.508;13.454;2023-07-13T09:39:10;23.70;56.40
6538;DHT22;3302;52.508;13.454;2023-07-13T09:44:36;23.70;56.60
6538;DHT22;3302;52.508;13.454;2023-07-13T09:47:03;23.80;55.80
6538;DHT22;3302;52.508;13.454;2023-07-13T09:49:34;23.50;54.50
6538;DHT22;3302;52.508;13.454;2023-07-13T09:52:03;23.30;51.60
6538;DHT22;3302;52.508;13.454;2023-07-13T09:54:34;23.70;51.80
6538;DHT22;3302;52.508;13.454;2023-07-13T09:57:02;23.30;51.50
6538;DHT22;3302;52.508;13.454;2023-07-13T09:59:35;23.60;50.10
6538;DHT22;3302;52.508;13.454;2023-07-13T10:02:02;23.60;51.30
6538;DHT22;3302;52.508;13.454;2023-07-13T10:05:05;23.60;51.10
6538;DHT22;3302;52.508;13.454;2023-07-13T10:07:32;23.70;49.80
6538;DHT22;3302;52.508;13.454;2023-07-13T10:10:14;23.70;49.60
6538;DHT22;3302;52.508;13.454;2023-07-13T10:12:40;23.50;50.30
6538;DHT22;3302;52.508;13.454;2023-07-13T10:15:13;23.50;50.50
6538;DHT22;3302;52.508;13.454;2023-07-13T10:17:40;23.30;50.80
6538;DHT22;3302;52.508;13.454;2023-07-13T10:20:06;23.30;51.00
6538;DHT22;3302;52.508;13.454;2023-07-13T10:23:04;23.20;52.00
6538;DHT22;3302;52.508;13.454;2023-07-13T10:25:38;23.50;51.80
6538;DHT22;3302;52.508;13.454;2023-07-13T10:30:49;23.60;52.00
6538;DHT22;3302;52.508;13.454;2023-07-13T10:33:16;23.70;50.70
6538;DHT22;3302;52.508;13.454;2023-07-13T10:35:43;23.40;50.10
6538;DHT22;3302;52.508;13.454;2023-07-13T10:38:21;23.30;50.70
6538;DHT22;3302;52.508;13.454;2023-07-13T10:40:56;23.40;51.10
6538;DHT22;3302;52.508;13.454;2023-07-13T10:43:29;23.80;49.50
6538;DHT22;3302;52.508;13.454;2023-07-13T10:45:59;23.90;48.70
6538;DHT22;3302;52.508;13.454;2023-07-13T10:48:26;23.70;48.20
6538;DHT22;3302;52.508;13.454;2023-07-13T10:50:53;23.70;48.80
6538;DHT22;3302;52.508;13.454;2023-07-13T10:53:32;23.70;48.20
6538;DHT22;3302;52.508;13.454;2023-07-13T10:56:03;23.90;48.70
6538;DHT22;3302;52.508;13.454;2023-07-13T10:58:38;24.10;48.30
6538;DHT22;3302;52.508;13.454;2023-07-13T11:03:58;24.00;45.90
6538;DHT22;3302;52.508;13.454;2023-07-13T11:09:25;23.80;47.70
6538;DHT22;3302;52.508;13.454;2023-07-13T11:12:00;24.00;47.30
6538;DHT22;3302;52.508;13.454;2023-07-13T11:14:31;23.90;47.40
6538;DHT22;3302;52.508;13.454;2023-07-13T11:18:11;24.00;45.70
6538;DHT22;3302;52.508;13.454;2023-07-13T11:22:48;24.30;44.70
6538;DHT22;3302;52.508;13.454;2023-07-13T11:33:16;24.40;43.30
6538;DHT22;3302;52.508;13.454;2023-07-13T11:36:03;24.50;43.40
6538;DHT22;3302;52.508;13.454;2023-07-13T11:41:57;24.90;42.70
6538;DHT22;3302;52.508;13.454;2023-07-13T11:44:28;24.80;42.90
6538;DHT22;3302;52.508;13.454;2023-07-13T11:46:55;24.70;42.80
6538;DHT22;3302;52.508;13.454;2023-07-13T11:49:24;24.30;41.90
6538;DHT22;3302;52.508;13.454;2023-07-13T11:51:51;24.00;44.30
6538;DHT22;3302;52.508;13.454;2023-07-13T11:54:27;24.10;45.00
6538;DHT22;3302;52.508;13.454;2023-07-13T11:59:50;24.40;42.90
6538;DHT22;3302;52.508;13.454;2023-07-13T12:02:29;24.40;43.30
6538;DHT22;3302;52.508;13.454;2023-07-13T12:04:57;24.80;44.20
6538;DHT22;3302;52.508;13.454;2023-07-13T12:07:24;24.70;40.40
6538;DHT22;3302;52.508;13.454;2023-07-13T12:09:50;24.40;40.20
6538;DHT22;3302;52.508;13.454;2023-07-13T12:12:21;24.70;40.30
6538;DHT22;3302;52.508;13.454;2023-07-13T12:14:53;24.90;40.00
6538;DHT22;3302;52.508;13.454;2023-07-13T12:17:23;24.60;39.40
6538;DHT22;3302;52.508;13.454;2023-07-13T12:19:51;24.90;40.10
6538;DHT22;3302;52.508;13.454;2023-07-13T12:22:18;24.90;41.30
6538;DHT22;3302;52.508;13.454;2023-07-13T12:24:45;24.80;41.90
6538;DHT22;3302;52.508;13.454;2023-07-13T12:27:23;24.80;41.70
6538;DHT22;3302;52.508;13.454;2023-07-13T12:29:52;24.60;42.30
6538;DHT22;3302;52.508;13.454;2023-07-13T12:32:19;24.70;42.80
6538;DHT22;3302;52.508;13.454;2023-07-13T12:35:14;24.80;43.10
6538;DHT22;3302;52.508;13.454;2023-07-13T12:37:45;24.80;42.40
6538;DHT22;3302;52.508;13.454;2023-07-13T12:40:20;24.70;42.30
6538;DHT22;3302;52.508;13.454;2023-07-13T12:42:49;24.90;41.80
6538;DHT22;3302;52.508;13.454;2023-07-13T12:45:27;25.00;40.40
6538;DHT22;3302;52.508;13.454;2023-07-13T12:48:04;25.00;40.40
6538;DHT22;3302;52.508;13.454;2023-07-13T12:50:38;25.00;40.70
6538;DHT22;3302;52.508;13.454;2023-07-13T12:53:13;24.90;41.50
6538;DHT22;3302;52.508;13.454;2023-07-13T12:55:59;24.90;41.70
6538;DHT22;3302;52.508;13.454;2023-07-13T12:58:30;25.00;41.10
6538;DHT22;3302;52.508;13.454;2023-07-13T13:00:59;25.00;40.50
6538;DHT22;3302;52.508;13.454;2023-07-13T13:03:35;25.00;39.10
6538;DHT22;3302;52.508;13.454;2023-07-13T13:06:18;24.80;39.90
6538;DHT22;3302;52.508;13.454;2023-07-13T13:08:48;24.80;39.70
6538;DHT22;3302;52.508;13.454;2023-07-13T13:11:15;25.00;40.30
6538;DHT22;3302;52.508;13.454;2023-07-13T13:13:42;24.90;40.30
6538;DHT22;3302;52.508;13.454;2023-07-13T13:16:12;24.80;38.50
6538;DHT22;3302;52.508;13.454;2023-07-13T13:18:40;24.80;39.30
6538;DHT22;3302;52.508;13.454;2023-07-13T13:21:05;24.60;39.20
6538;DHT22;3302;52.508;13.454;2023-07-13T13:23:31;24.60;40.10
6538;DHT22;3302;52.508;13.454;2023-07-13T13:25:57;24.70;39.60
6538;DHT22;3302;52.508;13.454;2023-07-13T13:28:23;24.90;40.00
6538;DHT22;3302;52.508;13.454;2023-07-13T13:30:50;24.80;39.70
6538;DHT22;3302;52.508;13.454;2023-07-13T13:33:18;24.90;38.50
6538;DHT22;3302;52.508;13.454;2023-07-13T13:35:44;24.80;40.20
6538;DHT22;3302;52.508;13.454;2023-07-13T13:38:24;24.80;41.20
6538;DHT22;3302;52.508;13.454;2023-07-13T13:40:50;24.90;41.20
6538;DHT22;3302;52.508;13.454;2023-07-13T13:43:23;24.80;41.70
6538;DHT22;3302;52.508;13.454;2023-07-13T13:45:55;24.90;40.90
6538;DHT22;3302;52.508;13.454;2023-07-13T13:48:32;24.80;40.50
6538;DHT22;3302;52.508;13.454;2023-07-13T13:51:00;25.10;39.80
6538;DHT22;3302;52.508;13.454;2023-07-13T13:53:26;25.20;40.90
6538;DHT22;3302;52.508;13.454;2023-07-13T13:55:52;25.30;39.60
6538;DHT22;3302;52.508;13.454;2023-07-13T13:58:19;25.00;38.00
6538;DHT22;3302;52.508;13.454;2023-07-13T14:00:45;25.10;38.90
6538;DHT22;3302;52.508;13.454;2023-07-13T14:03:15;25.30;39.40
6538;DHT22;3302;52.508;13.454;2023-07-13T14:05:42;25.20;39.10
6538;DHT22;3302;52.508;13.454;2023-07-13T14:08:19;25.40;38.70
6538;DHT22;3302;52.508;13.454;2023-07-13T14:10:46;25.50;37.60
6538;DHT22;3302;52.508;13.454;2023-07-13T14:13:38;25.60;38.10
6538;DHT22;3302;52.508;13.454;2023-07-13T14:16:02;25.70;37.60
6538;DHT22;3302;52.508;13.454;2023-07-13T14:18:28;25.50;38.20
6538;DHT22;3302;52.508;13.454;2023-07-13T14:20:54;25.40;38.40
6538;DHT22;3302;52.508;13.454;2023-07-13T14:23:20;25.60;38.00
6538;DHT22;3302;52.508;13.454;2023-07-13T14:25:47;25.50;37.10
6538;DHT22;3302;52.508;13.454;2023-07-13T14:28:23;25.40;36.50
6538;DHT22;3302;52.508;13.454;2023-07-13T14:30:50;25.40;35.70
6538;DHT22;3302;52.508;13.454;2023-07-13T14:33:16;25.30;37.30
6538;DHT22;3302;52.508;13.454;2023-07-13T14:35:42;25.50;38.40
6538;DHT22;3302;52.508;13.454;2023-07-13T14:38:13;25.50;38.80
6538;DHT22;3302;52.508;13.454;2023-07-13T14:40:41;25.50;39.10
6538;DHT22;3302;52.508;13.454;2023-07-13T14:43:11;25.60;40.20
6538;DHT22;3302;52.508;13.454;2023-07-13T14:45:41;25.70;37.60
6538;DHT22;3302;52.508;13.454;2023-07-13T14:48:20;25.90;37.30
6538;DHT22;3302;52.508;13.454;2023-07-13T14:50:46;26.00;36.90
6538;DHT22;3302;52.508;13.454;2023-07-13T14:53:13;25.90;37.60
6538;DHT22;3302;52.508;13.454;2023-07-13T14:55:39;25.60;37.90
6538;DHT22;3302;52.508;13.454;2023-07-13T14:58:06;25.70;37.30
6538;DHT22;3302;52.508;13.454;2023-07-13T15:00:32;26.00;37.50
6538;DHT22;3302;52.508;13.454;2023-07-13T15:02:59;25.80;36.90
6538;DHT22;3302;52.508;13.454;2023-07-13T15:05:31;26.20;37.30
6538;DHT22;3302;52.508;13.454;2023-07-13T15:07:59;26.00;37.40
6538;DHT22;3302;52.508;13.454;2023-07-13T15:10:28;25.80;37.10
6538;DHT22;3302;52.508;13.454;2023-07-13T15:12:59;25.90;36.30
6538;DHT22;3302;52.508;13.454;2023-07-13T15:15:30;26.20;36.00
6538;DHT22;3302;52.508;13.454;2023-07-13T15:17:58;26.10;36.30
6538;DHT22;3302;52.508;13.454;2023-07-13T15:20:30;25.80;36.40
6538;DHT22;3302;52.508;13.454;2023-07-13T15:22:58;26.10;35.80
6538;DHT22;3302;52.508;13.454;2023-07-13T15:25:26;26.30;35.00
6538;DHT22;3302;52.508;13.454;2023-07-13T15:27:54;26.40;34.20
6538;DHT22;3302;52.508;13.454;2023-07-13T15:30:21;26.60;33.20
6538;DHT22;3302;52.508;13.454;2023-07-13T15:32:48;26.50;32.00
6538;DHT22;3302;52.508;13.454;2023-07-13T15:35:20;26.60;29.80
6538;DHT22;3302;52.508;13.454;2023-07-13T15:37:46;26.50;30.80
6538;DHT22;3302;52.508;13.454;2023-07-13T15:40:13;26.40;31.90
6538;DHT22;3302;52.508;13.454;2023-07-13T15:42:40;26.60;31.30
6538;DHT22;3302;52.508;13.454;2023-07-13T15:45:23;26.40;31.90
6538;DHT22;3302;52.508;13.454;2023-07-13T15:47:53;26.40;32.10
6538;DHT22;3302;52.508;13.454;2023-07-13T15:50:24;26.50;33.00
6538;DHT22;3302;52.508;13.454;2023-07-13T15:52:54;26.80;31.80
6538;DHT22;3302;52.508;13.454;2023-07-13T15:55:21;26.60;31.40
6538;DHT22;3302;52.508;13.454;2023-07-13T15:57:52;26.60;31.70
6538;DHT22;3302;52.508;13.454;2023-07-13T16:00:23;26.80;31.70
6538;DHT22;3302;52.508;13.454;2023-07-13T16:02:50;26.80;32.90
6538;DHT22;3302;52.508;13.454;2023-07-13T16:05:17;26.70;32.60
6538;DHT22;3302;52.508;13.454;2023-07-13T16:07:49;26.80;32.40
6538;DHT22;3302;52.508;13.454;2023-07-13T16:10:19;26.50;32.80
6538;DHT22;3302;52.508;13.454;2023-07-13T16:12:46;26.60;32.80
6538;DHT22;3302;52.508;13.454;2023-07-13T16:15:18;27.30;31.40
6538;DHT22;3302;52.508;13.454;2023-07-13T16:17:46;27.40;31.10
6538;DHT22;3302;52.508;13.454;2023-07-13T16:20:13;27.80;30.30
6538;DHT22;3302;52.508;13.454;2023-07-13T16:22:40;28.30;29.80
6538;DHT22;3302;52.508;13.454;2023-07-13T16:25:24;28.00;29.20
6538;DHT22;3302;52.508;13.454;2023-07-13T16:27:51;27.80;30.00
6538;DHT22;3302;52.508;13.454;2023-07-13T16:30:23;27.90;28.80
6538;DHT22;3302;52.508;13.454;2023-07-13T16:32:55;28.30;28.50